Time;durP1;ratioP1;P1;durP2;ratioP2;P2;SDS_P1;SDS_P2;PMS_P1;PMS_P2;Temp;Humidity;BMP_temperature;BMP_pressure;BME280_temperature;BME280_humidity;BME280_pressure;Samples;Min_cycle;Max_cycle;Signal;HPM_P1;HPM_P2
2022/11/28 00:01:09;;;;;;;20.05;12.40;;;6.20;99.90;;;;;;5014896;28;20379;-49
2022/11/28 00:03:34;;;;;;;18.95;12.00;;;6.10;99.90;;;;;;5032759;28;20371;-47
2022/11/28 00:06:07;;;;;;;21.85;12.85;;;5.90;99.90;;;;;;5032332;28;20120;-48
2022/11/28 00:08:33;;;;;;;20.42;12.90;;;6.00;99.90;;;;;;5032307;28;20100;-46
2022/11/28 00:11:03;;;;;;;19.65;11.88;;;5.90;99.90;;;;;;5032380;28;20133;-49
2022/11/28 00:13:29;;;;;;;18.30;12.48;;;6.10;99.90;;;;;;5032291;28;20088;-49
2022/11/28 00:16:00;;;;;;;18.38;12.40;;;6.30;99.90;;;;;;5032520;28;20042;-45
2022/11/28 00:18:26;;;;;;;20.63;12.60;;;6.40;99.90;;;;;;5032150;28;20057;-48
2022/11/28 00:20:57;;;;;;;20.92;13.38;;;6.20;99.90;;;;;;5032227;28;20048;-48
2022/11/28 00:23:23;;;;;;;17.80;12.00;;;6.10;99.90;;;;;;5014502;28;20096;-50
2022/11/28 00:25:57;;;;;;;18.75;12.23;;;6.30;99.90;;;;;;4998184;28;20046;-45
2022/11/28 00:28:23;;;;;;;19.17;11.95;;;6.30;99.90;;;;;;5032123;28;20033;-44
2022/11/28 00:30:49;;;;;;;21.58;12.63;;;5.90;99.90;;;;;;5032191;28;20041;-45
2022/11/28 00:33:14;;;;;;;18.92;12.68;;;6.20;99.90;;;;;;5032111;28;20048;-47
2022/11/28 00:35:40;;;;;;;18.85;12.20;;;6.30;99.90;;;;;;5032084;28;20040;-49
2022/11/28 00:38:05;;;;;;;18.05;11.73;;;6.30;99.90;;;;;;5032216;28;20095;-45
2022/11/28 00:40:31;;;;;;;18.98;11.75;;;6.20;99.90;;;;;;5032050;28;20095;-45
2022/11/28 00:42:57;;;;;;;21.58;12.23;;;6.30;99.90;;;;;;5014262;28;20076;-45
2022/11/28 00:45:22;;;;;;;17.48;11.77;;;6.20;99.90;;;;;;5031951;28;20041;-46
2022/11/28 00:47:48;;;;;;;17.00;10.68;;;6.00;99.90;;;;;;5031826;28;20058;-47
2022/11/28 00:50:14;;;;;;;18.02;10.73;;;6.30;99.90;;;;;;5035576;28;20037;-49
2022/11/28 00:52:40;;;;;;;17.05;10.95;;;6.30;99.90;;;;;;5036306;28;20641;-47
2022/11/28 00:55:05;;;;;;;16.30;10.80;;;5.90;99.90;;;;;;5036153;28;20041;-45
2022/11/28 00:57:31;;;;;;;17.23;10.90;;;6.30;99.90;;;;;;5031809;28;20040;-45
2022/11/28 00:59:57;;;;;;;16.45;10.95;;;6.20;99.90;;;;;;5056006;28;20170;-49
2022/11/28 01:02:23;;;;;;;18.63;10.60;;;6.30;99.90;;;;;;5055719;28;20374;-44
2022/11/28 01:04:48;;;;;;;16.25;10.85;;;6.10;99.90;;;;;;5055771;28;20097;-44
2022/11/28 01:07:14;;;;;;;15.60;10.38;;;6.00;99.90;;;;;;5055690;28;20537;-48
2022/11/28 01:09:40;;;;;;;17.20;10.75;;;6.20;99.90;;;;;;5055859;28;20521;-45
2022/11/28 01:12:05;;;;;;;16.80;10.98;;;5.80;99.90;;;;;;5055469;28;20380;-44
2022/11/28 01:14:31;;;;;;;16.58;10.40;;;6.30;99.90;;;;;;5055469;28;20037;-46
2022/11/28 01:16:57;;;;;;;14.63;9.63;;;6.30;99.90;;;;;;5055415;28;20053;-44
2022/11/28 01:19:22;;;;;;;15.82;9.75;;;6.30;99.90;;;;;;5055445;28;20041;-44
2022/11/28 01:21:48;;;;;;;16.38;10.45;;;6.00;99.90;;;;;;5055663;28;20083;-45
2022/11/28 01:24:15;;;;;;;17.60;10.40;;;6.30;99.90;;;;;;5055482;28;20048;-46
2022/11/28 01:26:41;;;;;;;20.13;10.85;;;6.00;99.90;;;;;;5055324;28;20397;-44
2022/11/28 01:29:08;;;;;;;16.30;10.73;;;6.20;99.90;;;;;;5055131;28;20055;-44
2022/11/28 01:31:34;;;;;;;16.88;10.68;;;6.00;99.90;;;;;;5037556;28;20055;-47
2022/11/28 01:34:00;;;;;;;18.20;10.60;;;6.40;99.90;;;;;;5055473;28;20090;-44
2022/11/28 01:36:27;;;;;;;19.55;10.85;;;6.30;99.90;;;;;;5055456;28;20040;-46
2022/11/28 01:38:53;;;;;;;18.02;10.98;;;5.90;99.90;;;;;;5055246;28;20037;-44
2022/11/28 01:41:21;;;;;;;18.80;11.75;;;6.20;99.90;;;;;;5055009;28;20579;-48
2022/11/28 01:44:28;;;;;;;21.73;11.75;;;5.90;99.90;;;;;;5055132;28;20049;-44
2022/11/28 01:46:53;;;;;;;18.60;11.63;;;6.20;99.90;;;;;;5054816;28;20041;-44
2022/11/28 01:49:28;;;;;;;16.98;11.05;;;6.40;99.90;;;;;;5054895;28;20507;-45
2022/11/28 01:51:59;;;;;;;20.15;11.60;;;6.00;99.90;;;;;;5054978;28;20045;-47
2022/11/28 01:54:25;;;;;;;18.55;11.18;;;6.00;99.90;;;;;;5054734;28;20044;-45
2022/11/28 01:56:56;;;;;;;18.40;11.32;;;6.10;99.90;;;;;;5046783;28;20054;-44
2022/11/28 01:59:26;;;;;;;18.27;11.93;;;6.50;99.90;;;;;;5034587;28;20049;-45
2022/11/28 02:01:51;;;;;;;18.73;11.10;;;6.50;99.90;;;;;;5034933;28;20049;-45
2022/11/28 02:04:17;;;;;;;19.52;11.32;;;6.00;99.90;;;;;;5034780;28;20132;-44
2022/11/28 02:06:43;;;;;;;18.17;11.50;;;6.30;99.90;;;;;;5034634;28;20052;-45
2022/11/28 02:09:12;;;;;;;18.45;12.00;;;5.90;99.90;;;;;;5034540;28;20034;-45
2022/11/28 02:11:41;;;;;;;20.08;12.55;;;6.40;99.90;;;;;;5034883;28;20117;-46
2022/11/28 02:14:37;;;;;;;18.95;12.13;;;6.50;99.90;;;;;;5034704;28;20052;-44
2022/11/28 02:17:27;;;;;;;20.05;11.95;;;6.50;99.90;;;;;;5016622;28;20061;-46
2022/11/28 02:20:14;;;;;;;19.50;12.13;;;6.50;99.90;;;;;;5034666;28;20057;-44
2022/11/28 02:23:10;;;;;;;21.55;12.77;;;6.10;99.90;;;;;;5034686;28;20037;-46
2022/11/28 02:25:39;;;;;;;19.17;13.05;;;6.40;99.90;;;;;;5034571;28;20042;-46
2022/11/28 02:28:13;;;;;;;23.73;14.18;;;5.90;99.90;;;;;;5034178;28;20050;-48
2022/11/28 02:31:01;;;;;;;21.95;13.45;;;6.30;99.90;;;;;;5034124;28;20124;-48
2022/11/28 02:33:32;;;;;;;27.77;14.77;;;6.20;99.90;;;;;;5034107;28;20410;-49
2022/11/28 02:36:27;;;;;;;23.38;14.60;;;6.40;99.90;;;;;;5016468;28;20054;-49
2022/11/28 02:39:14;;;;;;;23.75;15.05;;;6.00;99.90;;;;;;5033891;28;20482;-46
2022/11/28 02:42:11;;;;;;;25.17;15.65;;;6.00;99.90;;;;;;5033938;28;20521;-44
2022/11/28 02:44:53;;;;;;;22.88;14.57;;;6.00;99.90;;;;;;5034043;28;20636;-45
2022/11/28 02:47:23;;;;;;;;;;;6.60;99.90;;;;;;5034323;28;20042;-44
2022/11/28 02:49:54;;;;;;;26.90;15.73;;;6.00;99.90;;;;;;5034006;28;19917;-44
2022/11/28 02:52:32;;;;;;;24.30;16.10;;;6.50;99.90;;;;;;5033703;28;20053;-45
2022/11/28 02:54:59;;;;;;;23.67;15.85;;;6.70;99.90;;;;;;5033568;28;20041;-45
2022/11/28 02:57:40;;;;;;;23.65;16.27;;;6.00;99.90;;;;;;5046449;28;20051;-46
2022/11/28 03:00:26;;;;;;;24.52;16.65;;;6.40;99.90;;;;;;5053633;28;20052;-45
2022/11/28 03:03:35;;;;;;;26.92;16.90;;;6.10;99.90;;;;;;5053681;28;20048;-45
2022/11/28 03:06:36;;;;;;;25.00;16.83;;;6.10;99.90;;;;;;5025696;28;20065;-48
2022/11/28 03:09:11;;;;;;;26.27;17.42;;;6.10;99.90;;;;;;5053497;28;20044;-47
2022/11/28 03:11:45;;;;;;;29.42;18.83;;;6.10;99.90;;;;;;5052693;28;20493;-44
2022/11/28 03:14:39;;;;;;;26.33;18.73;;;6.60;99.90;;;;;;5053286;28;20087;-49
2022/11/28 03:17:26;;;;;;;29.80;17.85;;;6.70;99.90;;;;;;5053110;28;20052;-48
2022/11/28 03:20:01;;;;;;;28.35;18.10;;;6.10;99.90;;;;;;5053259;28;20383;-44
2022/11/28 03:22:39;;;;;;;29.35;18.48;;;6.10;99.90;;;;;;5035358;28;20159;-46
2022/11/28 03:25:18;;;;;;;28.38;19.63;;;6.20;99.90;;;;;;5053277;28;20045;-45
2022/11/28 03:27:50;;;;;;;27.02;18.40;;;6.70;99.90;;;;;;5053076;28;20044;-45
2022/11/28 03:30:34;;;;;;;27.38;18.13;;;6.60;99.90;;;;;;5053086;28;20045;-44
2022/11/28 03:33:02;;;;;;;29.02;19.08;;;6.70;99.90;;;;;;5035513;28;20067;-46
2022/11/28 03:35:32;;;;;;;26.17;18.42;;;6.50;99.90;;;;;;5053018;28;20055;-46
2022/11/28 03:38:05;;;;;;;28.02;18.80;;;6.20;99.90;;;;;;5053045;28;20123;-45
2022/11/28 03:40:37;;;;;;;27.55;18.92;;;6.80;99.90;;;;;;5052787;28;20175;-44
2022/11/28 03:43:12;;;;;;;29.08;19.88;;;6.70;99.90;;;;;;5034857;28;20559;-45
2022/11/28 03:45:50;;;;;;;25.15;17.85;;;6.60;99.90;;;;;;5052769;28;20037;-45
2022/11/28 03:48:22;;;;;;;26.50;17.98;;;6.80;99.90;;;;;;5052692;28;20338;-45
2022/11/28 03:50:56;;;;;;;28.17;18.35;;;6.70;99.90;;;;;;5052718;28;20045;-44
2022/11/28 03:53:29;;;;;;;28.80;18.73;;;6.20;99.90;;;;;;5052621;28;20489;-45
2022/11/28 03:56:11;;;;;;;28.23;17.67;;;6.30;99.90;;;;;;5051993;28;20119;-48
2022/11/28 03:58:46;;;;;;;27.50;19.88;;;6.30;99.90;;;;;;5032743;28;20183;-45
2022/11/28 04:01:35;;;;;;;26.55;19.70;;;6.80;99.90;;;;;;5032669;28;20042;-44
2022/11/28 04:04:20;;;;;;;25.60;18.67;;;6.80;99.90;;;;;;5032642;28;20045;-44
2022/11/28 04:06:56;;;;;;;30.10;20.10;;;6.50;99.90;;;;;;5032405;28;20388;-46
2022/11/28 04:09:35;;;;;;;26.80;18.50;;;6.80;99.90;;;;;;5032522;28;20453;-45
2022/11/28 04:12:15;;;;;;;31.50;20.10;;;6.50;99.90;;;;;;5032470;28;20129;-45
2022/11/28 04:14:49;;;;;;;28.73;20.85;;;6.70;99.90;;;;;;5032384;28;20041;-45
2022/11/28 04:17:21;;;;;;;29.50;20.48;;;6.90;99.90;;;;;;5032367;28;20053;-45
2022/11/28 04:19:52;;;;;;;33.53;20.30;;;6.40;99.90;;;;;;5014730;28;20053;-45
2022/11/28 04:22:26;;;;;;;28.08;20.83;;;6.30;99.90;;;;;;5032220;28;20047;-46
2022/11/28 04:24:58;;;;;;;31.85;22.48;;;7.00;99.90;;;;;;5032439;28;20049;-45
2022/11/28 04:27:34;;;;;;;31.33;21.85;;;7.10;99.90;;;;;;5032201;28;20120;-45
2022/11/28 04:30:01;;;;;;;29.75;22.20;;;6.40;99.90;;;;;;5032307;28;20120;-44
2022/11/28 04:32:30;;;;;;;31.27;21.52;;;7.10;99.90;;;;;;5032120;28;20504;-45
2022/11/28 04:35:07;;;;;;;34.63;22.70;;;6.60;99.90;;;;;;5032121;28;20068;-44
2022/11/28 04:37:36;;;;;;;32.72;23.33;;;7.10;99.90;;;;;;5032137;28;20112;-44
2022/11/28 04:40:02;;;;;;;33.53;22.75;;;6.40;99.90;;;;;;5032010;28;20037;-44
2022/11/28 04:42:37;;;;;;;29.45;21.63;;;6.40;99.90;;;;;;5032364;28;20049;-49
2022/11/28 04:45:14;;;;;;;35.97;22.88;;;7.10;99.90;;;;;;5032013;28;20045;-47
2022/11/28 04:47:40;;;;;;;36.03;23.77;;;6.40;99.90;;;;;;5031979;28;20561;-48
2022/11/28 04:50:07;;;;;;;35.00;23.83;;;7.10;99.90;;;;;;5032032;28;20084;-45
2022/11/28 04:53:05;;;;;;;35.92;23.30;;;6.80;99.90;;;;;;5032210;28;20041;-45
2022/11/28 04:55:43;;;;;;;33.92;23.20;;;7.30;99.90;;;;;;5023751;28;20053;-46
2022/11/28 04:58:17;;;;;;;34.40;22.98;;;7.00;99.90;;;;;;5050395;28;20040;-46
2022/11/28 05:00:45;;;;;;;38.22;25.27;;;6.90;99.90;;;;;;5051830;28;20512;-47
2022/11/28 05:03:11;;;;;;;35.05;23.30;;;6.50;99.90;;;;;;5051756;28;20040;-45
2022/11/28 05:05:46;;;;;;;32.10;20.20;;;7.30;99.90;;;;;;5051807;28;20044;-45
2022/11/28 05:08:11;;;;;;;30.63;20.10;;;6.90;99.90;;;;;;5051636;28;20041;-46
2022/11/28 05:10:37;;;;;;;30.77;20.00;;;6.70;99.90;;;;;;5051563;28;20127;-45
2022/11/28 05:13:03;;;;;;;33.90;20.17;;;7.40;99.90;;;;;;5033955;28;20041;-46
2022/11/28 05:15:29;;;;;;;29.75;21.40;;;6.60;99.90;;;;;;5051652;28;20025;-48
2022/11/28 05:17:54;;;;;;;30.80;22.33;;;7.20;99.90;;;;;;5051343;28;20408;-47
2022/11/28 05:20:20;;;;;;;33.38;22.40;;;6.70;99.90;;;;;;5051631;28;20052;-46
2022/11/28 05:22:46;;;;;;;32.20;21.52;;;6.70;99.90;;;;;;5033709;28;20041;-46
2022/11/28 05:25:11;;;;;;;31.40;21.48;;;7.40;99.90;;;;;;5051574;28;20041;-44
2022/11/28 05:27:37;;;;;;;32.65;21.77;;;7.10;99.90;;;;;;5033694;28;20048;-47
2022/11/28 05:30:04;;;;;;;31.77;20.92;;;6.70;99.90;;;;;;5051358;28;20049;-48
2022/11/28 05:32:30;;;;;;;35.15;23.17;;;6.70;99.90;;;;;;5051538;28;20235;-47
2022/11/28 05:34:57;;;;;;;32.25;20.70;;;6.70;99.90;;;;;;5034931;28;20045;-46
2022/11/28 05:37:24;;;;;;;32.63;19.98;;;7.60;99.90;;;;;;5054977;28;20079;-47
2022/11/28 05:39:50;;;;;;;32.80;21.10;;;7.30;99.90;;;;;;5055459;28;20110;-47
2022/11/28 05:42:16;;;;;;;33.35;20.30;;;7.60;99.90;;;;;;5055001;28;20501;-46
2022/11/28 05:44:41;;;;;;;31.40;19.38;;;7.10;99.90;;;;;;5055335;28;20098;-46
2022/11/28 05:47:07;;;;;;;32.55;21.13;;;6.80;99.90;;;;;;5054904;28;20116;-48
2022/11/28 05:49:33;;;;;;;31.48;20.73;;;6.90;99.90;;;;;;5037444;28;20049;-48
2022/11/28 05:51:59;;;;;;;33.78;20.00;;;6.80;99.90;;;;;;5054771;28;20550;-44
2022/11/28 05:54:24;;;;;;;32.35;19.77;;;7.70;99.90;;;;;;5055197;28;20045;-44
2022/11/28 05:56:50;;;;;;;31.52;19.30;;;7.60;99.90;;;;;;5047050;28;20044;-44
2022/11/28 05:59:16;;;;;;;31.58;20.13;;;6.90;99.90;;;;;;5034791;28;20052;-44
2022/11/28 06:01:41;;;;;;;33.00;20.10;;;7.70;99.90;;;;;;5034786;28;20038;-45
2022/11/28 06:04:07;;;;;;;31.25;19.70;;;7.70;99.90;;;;;;5034884;28;20185;-44
2022/11/28 06:06:34;;;;;;;32.78;19.77;;;7.40;99.90;;;;;;5016856;28;20037;-45
2022/11/28 06:09:00;;;;;;;35.65;20.98;;;7.70;99.90;;;;;;5034634;28;20045;-45
2022/11/28 06:11:28;;;;;;;31.50;19.35;;;7.30;99.90;;;;;;5034842;28;20159;-44
2022/11/28 06:13:54;;;;;;;31.23;19.63;;;6.90;99.90;;;;;;5034564;28;20037;-44
2022/11/28 06:16:26;;;;;;;31.88;18.98;;;7.00;99.90;;;;;;5034636;28;20120;-47
2022/11/28 06:18:53;;;;;;;30.55;18.73;;;7.10;99.90;;;;;;5034478;28;20057;-46
2022/11/28 06:21:19;;;;;;;28.95;18.30;;;7.10;99.90;;;;;;5034279;28;20494;-45
2022/11/28 06:23:45;;;;;;;29.15;19.42;;;7.00;99.90;;;;;;5034499;28;20072;-44
2022/11/28 06:26:14;;;;;;;30.98;18.90;;;7.90;99.90;;;;;;5034577;28;20045;-46
2022/11/28 06:28:40;;;;;;;30.88;19.05;;;7.90;99.90;;;;;;5034349;28;20045;-46
2022/11/28 06:31:17;;;;;;;32.97;18.75;;;7.90;99.90;;;;;;5034367;28;20041;-46
2022/11/28 06:33:43;;;;;;;27.85;18.67;;;7.30;99.90;;;;;;5034115;28;20442;-45
2022/11/28 06:36:10;;;;;;;30.90;17.85;;;7.30;99.90;;;;;;5034341;28;20080;-46
2022/11/28 06:38:36;;;;;;;30.95;18.67;;;7.20;99.90;;;;;;5034360;28;20098;-45
2022/11/28 06:41:05;;;;;;;30.48;18.15;;;7.10;99.90;;;;;;5016516;28;20048;-45
2022/11/28 06:43:31;;;;;;;31.48;18.50;;;8.00;99.90;;;;;;5034058;28;20510;-45
2022/11/28 06:45:57;;;;;;;29.88;18.15;;;7.10;99.90;;;;;;5033325;28;20080;-44
2022/11/28 06:48:24;;;;;;;33.78;19.63;;;8.00;99.90;;;;;;5033678;28;20445;-44
2022/11/28 06:50:50;;;;;;;29.98;17.45;;;7.20;99.90;;;;;;5034142;28;20041;-47
2022/11/28 06:53:16;;;;;;;31.33;18.27;;;7.10;99.90;;;;;;5033756;28;20079;-45
2022/11/28 06:55:42;;;;;;;26.58;16.75;;;8.00;99.90;;;;;;5033974;28;20073;-46
2022/11/28 06:58:07;;;;;;;30.77;17.88;;;7.20;99.90;;;;;;5034915;28;20157;-44
2022/11/28 07:00:34;;;;;;;31.25;18.20;;;7.30;99.90;;;;;;5053755;28;20041;-47
2022/11/28 07:02:59;;;;;;;28.70;17.27;;;8.10;99.90;;;;;;5053561;28;20493;-44
2022/11/28 07:05:26;;;;;;;31.13;16.70;;;8.10;99.90;;;;;;5053528;28;20041;-44
2022/11/28 07:07:55;;;;;;;28.98;15.75;;;7.10;99.90;;;;;;5053345;28;20566;-47
2022/11/28 07:10:25;;;;;;;29.27;16.42;;;7.20;99.90;;;;;;5053560;28;20071;-45
2022/11/28 07:12:59;;;;;;;25.83;15.13;;;7.50;99.90;;;;;;5053409;28;20401;-46
2022/11/28 07:15:26;;;;;;;26.60;15.02;;;8.10;99.90;;;;;;5053400;28;20044;-48
2022/11/28 07:17:52;;;;;;;24.15;13.43;;;8.10;99.90;;;;;;5053148;28;20061;-49
2022/11/28 07:20:19;;;;;;;23.95;13.15;;;8.00;99.90;;;;;;5035705;28;20091;-48
2022/11/28 07:22:46;;;;;;;25.23;13.70;;;7.20;99.90;;;;;;5035431;28;20052;-44
2022/11/28 07:25:13;;;;;;;22.48;13.77;;;7.70;99.90;;;;;;5053325;28;20072;-44
2022/11/28 07:27:40;;;;;;;24.60;13.10;;;8.00;99.90;;;;;;5052831;28;20118;-47
2022/11/28 07:30:07;;;;;;;22.10;12.52;;;7.70;99.90;;;;;;5035133;28;20056;-47
2022/11/28 07:32:32;;;;;;;24.20;13.10;;;8.20;99.90;;;;;;5052896;28;20095;-46
2022/11/28 07:34:59;;;;;;;25.30;13.48;;;7.80;99.90;;;;;;5053061;28;20041;-48
2022/11/28 07:37:25;;;;;;;20.85;12.02;;;7.70;99.90;;;;;;5052986;28;20048;-45
2022/11/28 07:39:50;;;;;;;24.25;13.70;;;8.20;99.90;;;;;;5035035;28;20037;-46
2022/11/28 07:42:16;;;;;;;25.50;12.98;;;7.20;99.90;;;;;;5052863;28;20126;-45
2022/11/28 07:44:42;;;;;;;25.48;13.13;;;8.20;99.90;;;;;;5035055;28;20087;-44
2022/11/28 07:47:07;;;;;;;19.20;10.82;;;8.10;99.90;;;;;;5053027;28;20084;-47
2022/11/28 07:49:33;;;;;;;19.73;12.32;;;7.50;99.90;;;;;;5052604;28;20068;-49
2022/11/28 07:51:59;;;;;;;19.48;11.35;;;7.30;99.90;;;;;;5052775;28;20099;-44
2022/11/28 07:54:24;;;;;;;22.48;12.10;;;7.80;99.90;;;;;;5052607;28;20037;-48
2022/11/28 07:56:50;;;;;;;20.23;11.55;;;7.90;99.90;;;;;;5044527;28;20046;-46
2022/11/28 07:59:16;;;;;;;22.98;11.80;;;8.30;99.90;;;;;;5032421;28;20041;-46
2022/11/28 08:01:41;;;;;;;22.27;12.23;;;7.80;99.90;;;;;;5032558;28;20073;-45
2022/11/28 08:04:08;;;;;;;20.85;11.63;;;8.10;99.90;;;;;;5032751;28;20085;-45
2022/11/28 08:06:40;;;;;;;20.55;12.02;;;8.20;99.90;;;;;;5032592;28;20410;-46
2022/11/28 08:09:10;;;;;;;18.75;11.18;;;7.30;99.90;;;;;;5032450;28;20048;-44
2022/11/28 08:11:36;;;;;;;18.73;10.80;;;8.30;99.90;;;;;;5032480;28;20037;-46
2022/11/28 08:14:03;;;;;;;20.40;11.45;;;7.80;99.90;;;;;;5032502;28;20045;-44
2022/11/28 08:16:30;;;;;;;19.60;10.98;;;7.30;99.90;;;;;;5014531;28;20042;-45
2022/11/28 08:18:58;;;;;;;21.45;11.98;;;8.10;99.90;;;;;;5032385;28;20417;-45
2022/11/28 08:21:26;;;;;;;22.50;11.73;;;7.90;99.90;;;;;;5014706;28;20047;-44
2022/11/28 08:23:54;;;;;;;19.70;12.00;;;8.30;99.90;;;;;;5032219;28;20486;-44
2022/11/28 08:26:21;;;;;;;20.00;12.07;;;7.30;99.90;;;;;;5032249;28;20041;-44
2022/11/28 08:28:49;;;;;;;21.75;11.82;;;7.50;99.90;;;;;;5031880;28;20085;-45
2022/11/28 08:31:21;;;;;;;21.42;11.82;;;7.40;99.90;;;;;;5014787;28;20120;-44
2022/11/28 08:33:48;;;;;;;20.15;11.23;;;7.60;99.90;;;;;;5032124;28;20060;-45
2022/11/28 08:36:15;;;;;;;18.70;11.23;;;8.30;99.90;;;;;;5032263;28;20038;-45
2022/11/28 08:38:42;;;;;;;21.10;11.82;;;7.50;99.90;;;;;;5032052;28;20081;-44
2022/11/28 08:41:13;;;;;;;20.63;11.52;;;7.50;99.90;;;;;;5032314;28;20445;-44
2022/11/28 08:43:39;;;;;;;20.25;11.25;;;7.70;99.90;;;;;;5014330;28;20172;-44
2022/11/28 08:46:11;;;;;;;21.27;11.70;;;7.40;99.90;;;;;;5031921;28;20124;-46
2022/11/28 08:48:37;;;;;;;18.63;9.87;;;8.40;99.90;;;;;;5032044;28;20052;-46
2022/11/28 08:51:04;;;;;;;19.52;11.27;;;7.50;99.90;;;;;;5031788;28;20283;-44
2022/11/28 08:53:30;;;;;;;20.10;11.98;;;8.00;99.90;;;;;;5031965;28;20041;-44
2022/11/28 08:55:56;;;;;;;18.45;10.07;;;7.50;99.90;;;;;;5032350;28;20037;-44
2022/11/28 08:58:21;;;;;;;19.05;10.57;;;7.80;99.90;;;;;;5051804;28;20120;-45
2022/11/28 09:00:47;;;;;;;18.92;10.60;;;8.40;99.90;;;;;;5051783;28;20052;-46
2022/11/28 09:03:15;;;;;;;21.10;10.85;;;8.40;99.90;;;;;;5051820;28;20037;-44
2022/11/28 09:05:44;;;;;;;19.85;10.27;;;8.40;99.90;;;;;;5033999;28;20072;-44
2022/11/28 09:08:09;;;;;;;17.38;9.77;;;8.30;99.90;;;;;;5033850;28;20088;-44
2022/11/28 09:10:37;;;;;;;16.90;10.32;;;8.40;99.90;;;;;;5054465;28;20557;-44
2022/11/28 09:13:04;;;;;;;19.70;10.48;;;8.40;99.90;;;;;;5055674;28;20045;-46
2022/11/28 09:15:30;;;;;;;17.02;9.35;;;7.60;99.90;;;;;;5055657;28;20048;-45
2022/11/28 09:17:56;;;;;;;17.48;9.68;;;8.40;99.90;;;;;;5037581;28;20064;-45
2022/11/28 09:20:21;;;;;;;18.45;10.20;;;8.30;99.90;;;;;;5055421;28;20077;-45
2022/11/28 09:22:47;;;;;;;18.60;10.02;;;8.30;99.90;;;;;;5055797;28;20041;-45
2022/11/28 09:25:13;;;;;;;16.17;9.48;;;8.00;99.90;;;;;;5055406;28;20401;-44
2022/11/28 09:27:39;;;;;;;15.93;9.93;;;8.00;99.90;;;;;;5055297;28;20045;-45
2022/11/28 09:30:06;;;;;;;17.50;9.65;;;7.80;99.90;;;;;;5055318;28;20041;-47
2022/11/28 09:32:32;;;;;;;16.42;9.25;;;8.10;99.90;;;;;;5055242;28;20040;-46
2022/11/28 09:34:58;;;;;;;16.85;9.43;;;7.70;99.90;;;;;;5055026;28;20397;-46
2022/11/28 09:37:24;;;;;;;17.30;9.38;;;7.80;99.90;;;;;;5055515;28;20047;-47
2022/11/28 09:39:50;;;;;;;16.88;9.48;;;7.90;99.90;;;;;;5055131;28;20102;-49
2022/11/28 09:42:38;;;;;;;18.52;9.23;;;8.50;99.90;;;;;;5037397;28;20393;-48
2022/11/28 09:45:11;;;;;;;17.17;9.48;;;7.70;99.90;;;;;;5055087;28;20055;-46
2022/11/28 09:47:41;;;;;;;23.48;10.50;;;7.70;99.90;;;;;;5054874;28;20073;-45
2022/11/28 09:50:15;;;;;;;26.70;11.15;;;8.60;99.90;;;;;;5037288;28;20037;-44
2022/11/28 09:53:00;;;;;;;29.27;10.82;;;8.60;99.90;;;;;;5037277;28;20044;-47
2022/11/28 09:55:50;;;;;;;20.05;10.85;;;7.90;99.90;;;;;;5054912;28;20120;-47
2022/11/28 09:58:37;;;;;;;18.90;9.40;;;7.80;99.90;;;;;;5034971;28;20042;-45
2022/11/28 10:01:41;;;;;;;20.88;10.60;;;8.10;99.90;;;;;;5034876;28;20041;-49
2022/11/28 10:04:40;;;;;;;20.13;10.63;;;8.60;99.90;;;;;;5034124;28;20444;-46
2022/11/28 10:07:16;;;;;;;19.30;9.93;;;8.40;99.90;;;;;;4995971;28;20055;-45
2022/11/28 10:10:26;;;;;;;20.35;10.63;;;8.70;99.90;;;;;;5034710;28;20046;-47
2022/11/28 10:13:01;;;;;;;22.45;10.18;;;7.90;99.90;;;;;;5004438;28;20079;-50
2022/11/28 10:15:49;;;;;;;20.60;11.07;;;8.70;99.90;;;;;;5034666;28;20080;-50
2022/11/28 10:18:22;;;;;;;21.05;11.32;;;7.80;99.90;;;;;;5016711;28;20060;-49
2022/11/28 10:20:53;;;;;;;19.85;11.10;;;8.60;99.90;;;;;;5034253;28;20046;-49
2022/11/28 10:23:35;;;;;;;21.95;11.23;;;7.90;99.90;;;;;;5034417;28;20041;-46
2022/11/28 10:26:34;;;;;;;24.20;11.32;;;7.90;99.90;;;;;;5034370;28;20107;-48
2022/11/28 10:29:22;;;;;;;20.67;10.80;;;8.80;99.90;;;;;;5016739;28;20064;-49
2022/11/28 10:31:51;;;;;;;22.00;11.07;;;8.30;99.90;;;;;;5033277;28;20045;-48
2022/11/28 10:34:29;;;;;;;24.85;11.25;;;8.00;99.90;;;;;;5034456;28;20037;-48
2022/11/28 10:37:06;;;;;;;22.65;10.82;;;8.20;99.90;;;;;;5034163;28;20098;-46
2022/11/28 10:39:36;;;;;;;25.45;11.98;;;8.80;99.90;;;;;;5034084;28;20116;-45
2022/11/28 10:42:25;;;;;;;23.83;11.52;;;8.80;99.90;;;;;;5034283;28;20088;-45
2022/11/28 10:45:17;;;;;;;24.08;11.85;;;8.20;99.90;;;;;;5034004;28;20049;-45
2022/11/28 10:47:51;;;;;;;21.35;11.00;;;8.00;99.90;;;;;;5034054;28;20038;-45
2022/11/28 10:50:36;;;;;;;22.33;11.52;;;8.00;99.90;;;;;;5034199;28;20077;-47
2022/11/28 10:53:36;;;;;;;24.90;12.50;;;8.90;99.90;;;;;;5034086;28;20494;-46
2022/11/28 10:56:32;;;;;;;22.92;11.68;;;8.90;99.90;;;;;;5035219;28;20570;-45
2022/11/28 10:59:12;;;;;;;22.90;11.38;;;8.10;99.90;;;;;;5035829;28;20037;-47
2022/11/28 11:01:40;;;;;;;29.67;12.43;;;8.10;99.90;;;;;;5053593;28;20045;-46
2022/11/28 11:04:14;;;;;;;24.63;11.52;;;8.10;99.90;;;;;;5053710;28;20048;-45
2022/11/28 11:06:40;;;;;;;21.92;10.48;;;8.20;99.90;;;;;;5053468;28;20045;-45
2022/11/28 11:09:05;;;;;;;18.45;10.15;;;8.60;99.90;;;;;;5053772;28;20370;-44
2022/11/28 11:11:41;;;;;;;23.48;10.70;;;8.60;99.90;;;;;;5053369;28;20048;-47
2022/11/28 11:14:09;;;;;;;20.33;10.65;;;8.40;99.90;;;;;;5053400;28;20445;-46
2022/11/28 11:16:48;;;;;;;18.95;9.63;;;8.50;99.90;;;;;;5053448;28;20052;-47
2022/11/28 11:19:30;;;;;;;20.67;10.27;;;8.50;99.90;;;;;;5053312;28;20049;-45
2022/11/28 11:22:09;;;;;;;18.83;10.20;;;8.80;99.90;;;;;;5053435;28;20041;-45
2022/11/28 11:24:35;;;;;;;21.00;10.15;;;8.20;99.90;;;;;;5053131;28;20036;-45
2022/11/28 11:27:16;;;;;;;20.85;10.18;;;8.20;99.90;;;;;;5035399;28;20534;-45
2022/11/28 11:29:41;;;;;;;17.48;9.65;;;9.20;99.90;;;;;;5053045;28;20477;-45
2022/11/28 11:32:20;;;;;;;20.55;9.82;;;9.10;99.90;;;;;;5052630;28;20044;-45
2022/11/28 11:34:46;;;;;;;19.48;9.52;;;8.50;99.90;;;;;;5053212;28;20041;-45
2022/11/28 11:37:30;;;;;;;16.55;9.07;;;9.20;99.90;;;;;;5035263;28;20041;-45
2022/11/28 11:39:55;;;;;;;15.95;8.80;;;9.30;99.90;;;;;;5052999;28;20084;-45
2022/11/28 11:42:25;;;;;;;17.98;8.75;;;8.80;99.90;;;;;;5034913;28;20076;-45
2022/11/28 11:44:51;;;;;;;18.80;9.07;;;9.00;99.90;;;;;;5052776;28;20052;-44
2022/11/28 11:47:17;;;;;;;17.33;8.63;;;9.10;99.90;;;;;;5052790;28;20041;-46
2022/11/28 11:49:48;;;;;;;20.27;9.00;;;9.30;99.90;;;;;;5052909;28;20045;-45
2022/11/28 11:52:19;;;;;;;20.75;9.95;;;9.20;99.90;;;;;;5052804;28;20053;-46
2022/11/28 11:54:51;;;;;;;17.42;8.25;;;8.40;99.90;;;;;;5052587;28;20044;-47
2022/11/28 11:57:20;;;;;;;18.67;9.25;;;8.50;99.90;;;;;;5022806;28;20050;-45
2022/11/28 11:59:54;;;;;;;19.05;8.88;;;9.30;99.90;;;;;;5032591;28;20045;-48
2022/11/28 12:02:37;;;;;;;20.35;8.98;;;8.50;99.90;;;;;;5032544;28;20043;-48
2022/11/28 12:05:27;;;;;;;17.27;8.98;;;8.90;99.90;;;;;;5014906;28;20068;-50
2022/11/28 12:08:11;;;;;;;17.77;8.10;;;8.60;99.90;;;;;;5032331;28;20053;-45
2022/11/28 12:10:48;;;;;;;19.02;8.60;;;8.60;99.90;;;;;;5032567;28;20069;-45
2022/11/28 12:13:22;;;;;;;18.92;9.15;;;8.60;99.90;;;;;;5032344;28;20045;-45
2022/11/28 12:15:50;;;;;;;19.58;8.80;;;9.40;99.90;;;;;;5032712;28;20136;-46
2022/11/28 12:18:45;;;;;;;18.33;8.52;;;9.40;99.90;;;;;;5014421;28;20068;-45
2022/11/28 12:21:24;;;;;;;18.50;9.15;;;8.60;99.90;;;;;;5032413;28;20127;-47
2022/11/28 12:24:21;;;;;;;19.50;8.82;;;9.00;99.90;;;;;;5032241;28;20037;-47
2022/11/28 12:27:08;;;;;;;15.43;7.82;;;8.60;99.90;;;;;;5031847;28;20049;-49
2022/11/28 12:29:59;;;;;;;15.60;7.70;;;9.50;99.90;;;;;;5032269;28;20053;-50
2022/11/28 12:32:50;;;;;;;19.75;8.40;;;8.70;99.90;;;;;;5021330;28;20406;-49
2022/11/28 12:35:41;;;;;;;17.92;8.90;;;9.50;99.90;;;;;;5032254;28;20033;-45
2022/11/28 12:38:44;;;;;;;18.00;8.75;;;8.90;99.90;;;;;;5032006;28;20052;-48
2022/11/28 12:41:31;;;;;;;16.95;8.65;;;8.60;99.90;;;;;;5032143;28;20057;-48
2022/11/28 12:44:07;;;;;;;16.98;8.50;;;8.70;99.90;;;;;;5013584;28;20041;-49
2022/11/28 12:46:56;;;;;;;18.00;9.18;;;9.50;99.90;;;;;;5032134;28;20049;-45
2022/11/28 12:49:53;;;;;;;15.52;8.45;;;9.50;99.90;;;;;;5032068;28;20053;-47
2022/11/28 12:52:53;;;;;;;19.95;9.65;;;8.70;99.90;;;;;;5031944;28;20094;-47
2022/11/28 12:55:29;;;;;;;19.70;8.90;;;8.70;99.90;;;;;;5014415;28;20141;-50
2022/11/28 12:57:57;;;;;;;18.88;9.68;;;8.70;99.90;;;;;;5048957;28;20036;-46
2022/11/28 13:00:26;;;;;;;17.95;8.82;;;9.50;99.90;;;;;;5051877;28;20043;-47
2022/11/28 13:03:03;;;;;;;16.30;8.43;;;8.70;99.90;;;;;;5051896;28;20044;-46
2022/11/28 13:05:50;;;;;;;17.33;8.63;;;9.20;99.90;;;;;;5051780;28;20116;-46